Time;durP1;ratioP1;P1;durP2;ratioP2;P2;SDS_P1;SDS_P2;PMS_P1;PMS_P2;Temp;Humidity;BMP_temperature;BMP_pressure;BME280_temperature;BME280_humidity;BME280_pressure;Samples;Min_cycle;Max_cycle;Signal;HPM_P1;HPM_P2
2023/03/05 00:01:25;;;;;;;87.32;25.27;;;1.10;99.90;;;;;;4931176;29;20412;-71
2023/03/05 00:03:53;;;;;;;76.95;24.52;;;1.10;99.90;;;;;;4930404;29;20114;-71
2023/03/05 00:06:20;;;;;;;79.05;25.45;;;1.20;99.90;;;;;;4931340;29;20031;-71
2023/03/05 00:08:47;;;;;;;82.03;25.13;;;1.20;99.90;;;;;;4930642;29;20024;-71
2023/03/05 00:11:12;;;;;;;84.50;25.17;;;1.20;99.90;;;;;;4936941;29;20031;-71
2023/03/05 00:13:39;;;;;;;83.55;26.65;;;1.20;99.90;;;;;;4936761;29;20993;-71
2023/03/05 00:16:07;;;;;;;78.85;24.58;;;1.10;99.90;;;;;;4944771;29;20484;-72
2023/03/05 00:18:33;;;;;;;90.47;25.05;;;1.10;99.90;;;;;;4948340;29;20038;-70
2023/03/05 00:20:59;;;;;;;92.60;25.00;;;1.10;99.90;;;;;;4935530;29;20060;-72
2023/03/05 00:23:25;;;;;;;82.05;26.17;;;1.20;99.90;;;;;;4915257;29;20040;-71
2023/03/05 00:25:51;;;;;;;81.18;24.63;;;1.10;99.90;;;;;;4948077;29;20455;-71
2023/03/05 00:28:17;;;;;;;82.72;23.63;;;1.20;99.90;;;;;;4935952;29;20642;-71
2023/03/05 00:30:45;;;;;;;89.93;24.95;;;1.20;99.90;;;;;;4932118;29;20035;-71
2023/03/05 00:33:12;;;;;;;81.35;24.52;;;1.20;99.90;;;;;;4933949;29;20040;-71
2023/03/05 00:35:43;;;;;;;83.88;23.45;;;1.20;99.90;;;;;;4927635;29;20036;-70
2023/03/05 00:38:09;;;;;;;81.65;24.23;;;1.20;99.90;;;;;;4936783;29;20493;-72
2023/03/05 00:40:39;;;;;;;91.85;24.17;;;1.10;99.90;;;;;;4939967;29;20118;-71
2023/03/05 00:43:06;;;;;;;84.38;24.45;;;1.20;99.90;;;;;;4936543;29;20048;-71
2023/03/05 00:45:32;;;;;;;80.45;25.25;;;1.10;99.90;;;;;;4919698;29;20068;-71
2023/03/05 00:47:58;;;;;;;84.57;23.85;;;1.10;99.90;;;;;;4915235;29;20983;-71
2023/03/05 00:50:26;;;;;;;85.07;25.23;;;1.20;99.90;;;;;;4952675;28;20118;-71
2023/03/05 00:52:52;;;;;;;81.53;24.70;;;1.10;99.90;;;;;;4955479;28;20030;-72
2023/03/05 00:55:17;;;;;;;87.93;24.60;;;1.10;99.90;;;;;;4952417;29;20031;-71
2023/03/05 00:57:43;;;;;;;82.85;25.08;;;1.10;99.90;;;;;;4955722;29;20130;-71
2023/03/05 01:00:10;;;;;;;85.05;24.27;;;1.10;99.90;;;;;;4940573;29;20382;-70
2023/03/05 01:02:36;;;;;;;83.78;24.77;;;1.10;99.90;;;;;;4930885;29;20456;-70
2023/03/05 01:05:01;;;;;;;83.03;24.38;;;1.10;99.90;;;;;;4951195;28;20066;-71
2023/03/05 01:07:27;;;;;;;88.82;25.10;;;1.10;99.90;;;;;;4956359;29;20039;-70
2023/03/05 01:09:53;;;;;;;95.72;25.58;;;1.10;99.90;;;;;;4937360;29;20098;-70
2023/03/05 01:12:18;;;;;;;86.47;25.20;;;1.10;99.90;;;;;;4929011;29;20035;-70
2023/03/05 01:14:44;;;;;;;90.80;23.35;;;1.10;99.90;;;;;;4938388;29;20039;-70
2023/03/05 01:17:10;;;;;;;80.78;24.50;;;1.20;99.90;;;;;;4938971;29;20035;-70
2023/03/05 01:19:35;;;;;;;85.50;25.20;;;1.10;99.90;;;;;;4936682;29;20079;-69
2023/03/05 01:22:01;;;;;;;88.80;25.35;;;1.10;99.90;;;;;;4955313;29;20389;-70
2023/03/05 01:24:26;;;;;;;77.85;24.20;;;1.20;99.90;;;;;;4950289;29;20138;-70
2023/03/05 01:26:52;;;;;;;81.53;24.52;;;1.20;99.90;;;;;;4938930;29;20071;-70
2023/03/05 01:29:18;;;;;;;87.53;23.13;;;1.20;99.90;;;;;;4926900;29;20036;-70
2023/03/05 01:31:43;;;;;;;94.97;23.63;;;1.10;99.90;;;;;;4937192;29;20035;-70
2023/03/05 01:34:09;;;;;;;81.43;25.48;;;1.10;99.90;;;;;;4946627;29;20039;-70
2023/03/05 01:36:35;;;;;;;75.80;24.48;;;1.20;99.90;;;;;;4956626;28;20499;-69
2023/03/05 01:39:01;;;;;;;83.03;23.63;;;1.10;99.90;;;;;;4949814;28;20082;-70
2023/03/05 01:41:27;;;;;;;90.97;24.20;;;1.10;99.90;;;;;;4950128;29;20042;-69
2023/03/05 01:43:53;;;;;;;94.68;25.90;;;1.10;99.90;;;;;;4939243;29;20035;-70
2023/03/05 01:46:35;;;;;;;80.40;24.88;;;1.10;99.90;;;;;;4923926;29;20099;-69
2023/03/05 01:49:23;;;;;;;86.38;24.77;;;1.10;99.90;;;;;;4944342;29;20024;-69
2023/03/05 01:52:06;;;;;;;94.72;24.98;;;1.10;99.90;;;;;;4914051;29;20116;-69
2023/03/05 01:54:46;;;;;;;92.32;24.90;;;1.10;99.90;;;;;;4942070;29;20086;-70
2023/03/05 01:57:23;;;;;;;77.05;25.40;;;1.00;99.90;;;;;;4931740;29;20123;-69
2023/03/05 01:59:55;;;;;;;87.32;25.35;;;1.00;99.90;;;;;;4921805;29;20043;-69
2023/03/05 02:02:21;;;;;;;95.18;25.33;;;1.00;99.90;;;;;;4928626;29;20489;-69
2023/03/05 02:05:11;;;;;;;91.47;25.88;;;1.00;99.90;;;;;;4927106;29;20024;-69
2023/03/05 02:07:38;;;;;;;;;;;1.00;99.90;;;;;;4943475;29;20109;-69
2023/03/05 02:10:32;;;;;;;86.97;24.20;;;1.00;99.90;;;;;;4950945;29;19914;-69
2023/03/05 02:13:00;;;;;;;81.45;24.33;;;1.00;99.90;;;;;;4938927;29;20547;-69
2023/03/05 02:15:27;;;;;;;86.93;24.40;;;1.00;99.90;;;;;;4914416;29;20036;-72
2023/03/05 02:17:53;;;;;;;84.80;24.85;;;1.00;99.90;;;;;;4925867;29;20102;-71
2023/03/05 02:20:25;;;;;;;95.32;24.92;;;1.00;99.90;;;;;;4931426;29;20047;-71
2023/03/05 02:22:51;;;;;;;96.57;26.63;;;1.00;99.90;;;;;;4937403;29;20050;-71
2023/03/05 02:25:26;;;;;;;93.65;25.52;;;1.00;99.90;;;;;;4943916;29;20099;-72
2023/03/05 02:28:06;;;;;;;87.97;26.45;;;1.00;99.90;;;;;;4939385;29;20056;-71
2023/03/05 02:30:33;;;;;;;100.72;25.27;;;1.00;99.90;;;;;;4931162;29;20047;-71
2023/03/05 02:32:58;;;;;;;92.20;25.90;;;1.00;99.90;;;;;;4944326;29;20040;-71
2023/03/05 02:35:24;;;;;;;91.75;24.55;;;1.00;99.90;;;;;;4937427;29;20136;-71
2023/03/05 02:37:50;;;;;;;92.72;25.88;;;1.00;99.90;;;;;;4949153;29;20039;-71
2023/03/05 02:40:16;;;;;;;93.57;26.80;;;1.00;99.90;;;;;;4948301;29;20030;-72
2023/03/05 02:42:42;;;;;;;96.13;26.10;;;1.00;99.90;;;;;;4920715;29;20138;-70
2023/03/05 02:45:10;;;;;;;88.60;25.77;;;1.00;99.90;;;;;;4935766;29;20046;-71
2023/03/05 02:47:35;;;;;;;92.57;25.95;;;1.00;99.90;;;;;;4945428;29;20047;-72
2023/03/05 02:50:02;;;;;;;95.90;27.05;;;1.00;99.90;;;;;;4927383;29;20047;-71
2023/03/05 02:52:28;;;;;;;101.63;27.05;;;1.00;99.90;;;;;;4951854;29;20063;-72
2023/03/05 02:54:54;;;;;;;97.13;26.45;;;1.10;99.90;;;;;;4948577;28;20086;-71
2023/03/05 02:57:20;;;;;;;84.97;25.17;;;1.00;99.90;;;;;;4951180;29;20511;-72
2023/03/05 02:59:46;;;;;;;93.63;26.05;;;1.00;99.90;;;;;;4923988;29;20035;-71
2023/03/05 03:02:12;;;;;;;96.60;25.88;;;1.00;99.90;;;;;;4934803;29;20161;-72
2023/03/05 03:04:37;;;;;;;92.55;25.52;;;1.00;99.90;;;;;;4930959;29;20038;-72
2023/03/05 03:07:03;;;;;;;93.00;25.60;;;1.00;99.90;;;;;;4930387;29;20035;-71
2023/03/05 03:09:29;;;;;;;88.68;26.05;;;1.00;99.90;;;;;;4932029;29;20031;-71
2023/03/05 03:11:54;;;;;;;80.88;24.45;;;1.00;99.90;;;;;;4942565;29;20082;-71
2023/03/05 03:14:20;;;;;;;91.40;26.23;;;1.00;99.90;;;;;;4939620;29;20045;-71
2023/03/05 03:16:46;;;;;;;93.10;26.38;;;1.00;99.90;;;;;;4932973;29;20039;-70
2023/03/05 03:19:12;;;;;;;99.53;24.40;;;1.00;99.90;;;;;;4933272;29;20122;-71
2023/03/05 03:21:38;;;;;;;106.32;26.63;;;1.00;99.90;;;;;;4936589;29;20532;-71
2023/03/05 03:24:04;;;;;;;99.28;26.85;;;1.00;99.90;;;;;;4940823;29;20039;-71
2023/03/05 03:26:30;;;;;;;93.18;26.25;;;1.10;99.90;;;;;;4927043;29;20138;-71
2023/03/05 03:28:56;;;;;;;89.38;25.10;;;1.10;99.90;;;;;;4922626;29;20039;-71
2023/03/05 03:31:22;;;;;;;87.45;25.65;;;1.00;99.90;;;;;;4932150;29;20040;-71
2023/03/05 03:33:48;;;;;;;96.35;26.77;;;1.00;99.90;;;;;;4928283;29;20038;-70
2023/03/05 03:36:14;;;;;;;85.60;26.00;;;1.10;99.90;;;;;;4931813;29;20036;-71
2023/03/05 03:38:40;;;;;;;86.13;26.35;;;1.00;99.90;;;;;;4934786;29;20111;-71
2023/03/05 03:41:07;;;;;;;88.95;24.27;;;1.00;99.90;;;;;;4930871;29;20059;-71
2023/03/05 03:43:34;;;;;;;94.60;25.65;;;1.00;99.90;;;;;;4921648;29;20112;-71
2023/03/05 03:45:59;;;;;;;91.78;25.23;;;1.00;99.90;;;;;;4929122;29;20039;-71
2023/03/05 03:48:25;;;;;;;94.35;27.02;;;1.00;99.90;;;;;;4925026;29;20047;-71
2023/03/05 03:50:51;;;;;;;98.63;26.00;;;1.00;99.90;;;;;;4934212;29;20709;-70
2023/03/05 03:53:16;;;;;;;88.07;25.63;;;1.00;99.90;;;;;;4921150;29;20036;-71
2023/03/05 03:55:45;;;;;;;93.63;26.23;;;1.00;99.90;;;;;;4918789;29;20031;-71
2023/03/05 03:58:11;;;;;;;96.18;25.85;;;1.00;99.90;;;;;;4933731;29;20032;-71
2023/03/05 04:00:38;;;;;;;91.95;25.45;;;1.00;99.90;;;;;;4925644;29;20035;-71
2023/03/05 04:03:03;;;;;;;85.90;23.52;;;1.00;99.90;;;;;;4939839;29;20142;-71
2023/03/05 04:05:29;;;;;;;87.70;25.55;;;1.00;99.90;;;;;;4937613;29;20423;-71
2023/03/05 04:07:57;;;;;;;87.28;24.88;;;1.00;99.90;;;;;;4943150;28;20052;-71
2023/03/05 04:10:24;;;;;;;89.47;25.15;;;1.00;99.90;;;;;;4924231;29;20034;-71
2023/03/05 04:12:50;;;;;;;86.43;24.77;;;1.00;99.90;;;;;;4947259;29;20043;-70
2023/03/05 04:15:16;;;;;;;93.63;25.77;;;1.00;99.90;;;;;;4926549;29;20043;-71
2023/03/05 04:17:42;;;;;;;91.68;24.35;;;1.10;99.90;;;;;;4925659;29;20484;-71
2023/03/05 04:20:09;;;;;;;91.57;25.30;;;1.00;99.90;;;;;;4933663;29;20023;-71
2023/03/05 04:22:35;;;;;;;98.15;26.17;;;1.00;99.90;;;;;;4930545;29;20028;-71
2023/03/05 04:25:05;;;;;;;94.18;25.80;;;1.00;99.90;;;;;;4935440;29;20380;-71
2023/03/05 04:27:33;;;;;;;89.68;26.23;;;1.00;99.90;;;;;;4931002;29;20062;-71
2023/03/05 04:29:59;;;;;;;89.45;25.67;;;1.10;99.90;;;;;;4928585;29;20384;-71
2023/03/05 04:32:28;;;;;;;89.50;24.45;;;1.10;99.90;;;;;;4919930;29;20102;-71
2023/03/05 04:34:55;;;;;;;83.53;24.80;;;1.10;99.90;;;;;;4941720;29;20027;-71
2023/03/05 04:37:21;;;;;;;80.18;23.75;;;1.10;99.90;;;;;;4933962;29;20039;-71
2023/03/05 04:39:47;;;;;;;82.63;23.98;;;1.00;99.90;;;;;;4932447;29;20032;-71
2023/03/05 04:42:12;;;;;;;88.88;25.85;;;1.00;99.90;;;;;;4934383;29;20494;-71
2023/03/05 04:44:38;;;;;;;86.90;24.55;;;1.00;99.90;;;;;;4947043;29;20054;-71
2023/03/05 04:47:04;;;;;;;80.05;23.88;;;1.00;99.90;;;;;;4940902;29;20043;-71
2023/03/05 04:49:29;;;;;;;87.80;25.00;;;1.00;99.90;;;;;;4933785;29;20035;-71
2023/03/05 04:51:56;;;;;;;83.82;25.45;;;1.10;99.90;;;;;;4944372;29;20388;-71
2023/03/05 04:54:23;;;;;;;83.32;24.52;;;1.10;99.90;;;;;;4935143;29;20419;-71
2023/03/05 04:56:49;;;;;;;83.35;24.65;;;1.10;99.90;;;;;;4938671;29;20063;-70
2023/03/05 04:59:14;;;;;;;96.43;24.83;;;1.10;99.90;;;;;;4938757;29;20073;-71
2023/03/05 05:01:40;;;;;;;88.05;24.63;;;1.10;99.90;;;;;;4934677;29;20043;-70
2023/03/05 05:04:06;;;;;;;83.95;24.33;;;1.10;99.90;;;;;;4931730;29;20128;-71
2023/03/05 05:06:32;;;;;;;92.60;24.90;;;1.10;99.90;;;;;;4938341;29;20390;-71
2023/03/05 05:08:57;;;;;;;88.60;24.77;;;1.20;99.90;;;;;;4930538;29;20087;-71
2023/03/05 05:11:23;;;;;;;85.25;25.67;;;1.20;99.90;;;;;;4929643;29;20028;-71
2023/03/05 05:13:48;;;;;;;90.60;25.13;;;1.20;99.90;;;;;;4924856;29;20397;-71
2023/03/05 05:16:15;;;;;;;90.28;25.02;;;1.20;99.90;;;;;;4930186;29;20038;-71
2023/03/05 05:18:40;;;;;;;98.55;25.65;;;1.20;99.90;;;;;;4932545;29;20067;-71
2023/03/05 05:21:11;;;;;;;84.25;22.88;;;1.20;99.90;;;;;;4933718;29;20729;-71
2023/03/05 05:23:37;;;;;;;85.38;25.00;;;1.20;99.90;;;;;;4934102;29;20055;-71
2023/03/05 05:26:05;;;;;;;77.15;24.25;;;1.20;99.90;;;;;;4934916;29;20106;-71
2023/03/05 05:28:31;;;;;;;81.25;25.00;;;1.20;99.90;;;;;;4937646;29;20048;-71
2023/03/05 05:30:57;;;;;;;85.43;25.70;;;1.20;99.90;;;;;;4931258;29;20114;-69
2023/03/05 05:33:23;;;;;;;88.45;23.40;;;1.20;99.90;;;;;;4935866;29;20064;-71
2023/03/05 05:35:49;;;;;;;89.28;23.80;;;1.20;99.90;;;;;;4942008;29;20059;-72
2023/03/05 05:38:15;;;;;;;90.93;25.15;;;1.20;99.90;;;;;;4934494;29;20306;-71
2023/03/05 05:40:41;;;;;;;82.60;24.30;;;1.20;99.90;;;;;;4933358;29;20512;-71
2023/03/05 05:43:07;;;;;;;88.03;24.60;;;1.20;99.90;;;;;;4931370;29;20110;-71
2023/03/05 05:45:33;;;;;;;91.03;24.23;;;1.20;99.90;;;;;;4933291;29;20043;-71
2023/03/05 05:47:59;;;;;;;96.38;26.35;;;1.20;99.90;;;;;;4944840;29;20035;-71
2023/03/05 05:50:25;;;;;;;90.78;23.85;;;1.20;99.90;;;;;;4938809;29;20042;-72
2023/03/05 05:52:51;;;;;;;94.43;25.60;;;1.20;99.90;;;;;;4934574;29;20032;-71
2023/03/05 05:55:17;;;;;;;96.65;26.48;;;1.20;99.90;;;;;;4941986;29;20385;-72
2023/03/05 05:57:43;;;;;;;87.75;23.77;;;1.20;99.90;;;;;;4935654;29;20488;-71
2023/03/05 06:00:10;;;;;;;93.20;25.77;;;1.20;99.90;;;;;;4932974;29;20118;-69
2023/03/05 06:02:40;;;;;;;89.20;24.63;;;1.20;99.90;;;;;;4933882;29;20082;-71
2023/03/05 06:05:10;;;;;;;87.63;24.48;;;1.10;99.90;;;;;;4937698;29;20126;-71
2023/03/05 06:07:36;;;;;;;93.18;26.75;;;1.20;99.90;;;;;;4932039;29;20435;-71
2023/03/05 06:10:03;;;;;;;95.68;25.17;;;1.20;99.90;;;;;;4932378;29;20031;-71
2023/03/05 06:12:29;;;;;;;102.88;25.90;;;1.20;99.90;;;;;;4936887;29;20040;-72
2023/03/05 06:14:57;;;;;;;86.35;25.70;;;1.20;99.90;;;;;;4937063;29;20091;-71
2023/03/05 06:17:23;;;;;;;87.40;24.02;;;1.20;99.90;;;;;;4939346;29;20469;-72
2023/03/05 06:19:48;;;;;;;86.30;24.90;;;1.20;99.90;;;;;;4933259;29;20037;-72
2023/03/05 06:22:14;;;;;;;86.65;23.52;;;1.20;99.90;;;;;;4943327;29;20690;-72
2023/03/05 06:24:39;;;;;;;96.30;26.15;;;1.20;99.90;;;;;;4936292;29;20036;-72
2023/03/05 06:27:05;;;;;;;86.30;25.35;;;1.20;99.90;;;;;;4913252;29;20066;-71
2023/03/05 06:29:31;;;;;;;92.88;26.23;;;1.20;99.90;;;;;;4898674;29;20059;-73
2023/03/05 06:31:57;;;;;;;94.72;25.98;;;1.20;99.90;;;;;;4910157;29;20123;-71
2023/03/05 06:34:22;;;;;;;87.32;25.15;;;1.20;99.90;;;;;;4911057;29;20128;-71
2023/03/05 06:36:48;;;;;;;87.05;26.35;;;1.20;99.90;;;;;;4913083;29;20036;-72
2023/03/05 06:39:14;;;;;;;102.05;28.13;;;1.20;99.90;;;;;;4912845;29;20836;-71
2023/03/05 06:41:40;;;;;;;93.35;27.23;;;1.20;99.90;;;;;;4906444;29;20128;-71
2023/03/05 06:44:05;;;;;;;93.40;27.45;;;1.20;99.90;;;;;;4890361;29;20032;-72
2023/03/05 06:46:34;;;;;;;86.60;26.95;;;1.20;99.90;;;;;;4917368;29;20571;-71
2023/03/05 06:49:01;;;;;;;89.63;25.95;;;1.20;99.90;;;;;;4914042;29;20608;-71
2023/03/05 06:51:28;;;;;;;96.20;27.52;;;1.20;99.90;;;;;;4908248;29;20062;-72
2023/03/05 06:53:55;;;;;;;94.13;27.60;;;1.20;99.90;;;;;;4909701;29;20438;-72
2023/03/05 06:56:21;;;;;;;96.50;26.27;;;1.30;99.90;;;;;;4911723;29;20039;-72
2023/03/05 06:58:49;;;;;;;88.95;25.58;;;1.30;99.90;;;;;;4913420;29;20036;-72
2023/03/05 07:01:16;;;;;;;99.38;26.45;;;1.30;99.90;;;;;;4900474;29;20103;-71
2023/03/05 07:03:42;;;;;;;89.15;26.00;;;1.30;99.90;;;;;;4913607;29;20029;-72
2023/03/05 07:06:13;;;;;;;94.20;25.05;;;1.30;99.90;;;;;;4891403;29;20043;-72
2023/03/05 07:08:38;;;;;;;88.40;26.40;;;1.30;99.90;;;;;;4912494;29;20513;-71
2023/03/05 07:11:16;;;;;;;94.50;26.88;;;1.30;99.90;;;;;;4901468;29;20040;-72
2023/03/05 07:13:42;;;;;;;93.85;25.65;;;1.30;99.90;;;;;;4902073;29;20032;-72
2023/03/05 07:16:12;;;;;;;101.68;27.17;;;1.20;99.90;;;;;;4906335;29;20039;-71
2023/03/05 07:18:38;;;;;;;91.13;25.25;;;1.30;99.90;;;;;;4912436;29;20071;-72
2023/03/05 07:21:08;;;;;;;92.32;25.33;;;1.30;99.90;;;;;;4906934;29;20441;-71
2023/03/05 07:23:34;;;;;;;57.50;18.75;;;1.30;99.90;;;;;;4913463;29;20032;-72
2023/03/05 07:26:01;;;;;;;87.75;25.58;;;1.30;99.90;;;;;;4899976;29;20040;-71
2023/03/05 07:28:27;;;;;;;92.63;25.67;;;1.30;99.90;;;;;;4930071;29;20035;-72
2023/03/05 07:31:07;;;;;;;89.05;24.77;;;1.30;99.90;;;;;;4910523;29;20039;-71
2023/03/05 07:33:35;;;;;;;89.05;26.00;;;1.30;99.90;;;;;;4920441;29;20103;-72
2023/03/05 07:36:03;;;;;;;94.53;25.58;;;1.40;99.90;;;;;;4920764;29;20420;-69
2023/03/05 07:38:30;;;;;;;95.63;25.30;;;1.40;99.90;;;;;;4920781;29;20054;-72
2023/03/05 07:41:00;;;;;;;86.63;24.77;;;1.40;99.90;;;;;;4916459;29;20039;-71
2023/03/05 07:43:26;;;;;;;97.13;25.27;;;1.50;99.90;;;;;;4920300;29;20158;-73
2023/03/05 07:45:51;;;;;;;94.75;25.42;;;1.50;99.90;;;;;;4922451;29;20038;-73
2023/03/05 07:48:21;;;;;;;84.65;24.17;;;1.50;99.90;;;;;;4923551;29;20036;-72
2023/03/05 07:50:47;;;;;;;82.80;24.35;;;1.50;99.90;;;;;;4922047;29;20130;-70
2023/03/05 07:53:13;;;;;;;83.88;25.02;;;1.60;99.90;;;;;;4919934;29;20062;-72
2023/03/05 07:55:43;;;;;;;78.85;22.88;;;1.60;99.90;;;;;;4920076;29;20043;-72
2023/03/05 07:58:09;;;;;;;84.10;24.17;;;1.60;99.90;;;;;;4923375;29;20054;-71
2023/03/05 08:00:35;;;;;;;81.70;23.60;;;1.60;99.90;;;;;;4922855;29;20048;-72
2023/03/05 08:03:01;;;;;;;86.28;24.10;;;1.60;99.90;;;;;;4921366;29;20027;-70
2023/03/05 08:05:27;;;;;;;82.13;24.55;;;1.60;99.90;;;;;;4922435;29;21049;-72
2023/03/05 08:07:52;;;;;;;76.30;23.13;;;1.60;99.90;;;;;;4922357;29;20142;-70
2023/03/05 08:10:18;;;;;;;85.65;23.58;;;1.60;99.90;;;;;;4922295;29;20114;-72
2023/03/05 08:12:44;;;;;;;77.72;22.65;;;1.70;99.90;;;;;;4919036;29;20035;-72
2023/03/05 08:15:10;;;;;;;81.95;26.00;;;1.70;99.90;;;;;;4921743;29;20038;-70
2023/03/05 08:17:36;;;;;;;86.68;23.20;;;1.70;99.90;;;;;;4923324;29;20158;-72
2023/03/05 08:20:04;;;;;;;79.00;24.23;;;1.70;99.90;;;;;;4921581;29;20074;-69
2023/03/05 08:22:33;;;;;;;83.15;23.55;;;1.70;99.90;;;;;;4918424;29;20527;-73
2023/03/05 08:24:59;;;;;;;81.22;23.45;;;1.70;99.90;;;;;;4909311;29;20139;-73
2023/03/05 08:27:25;;;;;;;79.35;24.65;;;1.70;99.90;;;;;;4902904;29;20053;-74
2023/03/05 08:29:50;;;;;;;84.88;23.70;;;1.70;99.90;;;;;;4908642;29;20046;-74
2023/03/05 08:32:16;;;;;;;77.72;22.63;;;1.70;99.90;;;;;;4911047;29;20726;-76
2023/03/05 08:34:41;;;;;;;91.05;23.02;;;1.80;99.90;;;;;;4904579;29;20067;-74
2023/03/05 08:37:08;;;;;;;85.30;22.92;;;1.80;99.90;;;;;;4910295;29;20062;-74
2023/03/05 08:39:35;;;;;;;78.68;22.25;;;1.80;99.90;;;;;;4912368;29;20031;-75
2023/03/05 08:42:01;;;;;;;73.43;22.13;;;1.80;99.90;;;;;;4911696;29;20044;-73
2023/03/05 08:44:26;;;;;;;80.95;22.88;;;1.90;99.90;;;;;;4910148;29;20058;-72
2023/03/05 08:46:52;;;;;;;82.25;23.50;;;1.90;99.90;;;;;;4891253;29;20135;-73
2023/03/05 08:49:18;;;;;;;82.28;22.63;;;1.90;99.90;;;;;;4895048;29;20533;-72
2023/03/05 08:51:43;;;;;;;86.85;22.95;;;1.90;99.90;;;;;;4903683;29;20860;-72
2023/03/05 08:54:09;;;;;;;81.82;23.05;;;2.00;99.90;;;;;;4905004;29;20486;-72
2023/03/05 08:56:35;;;;;;;75.50;21.50;;;2.00;99.90;;;;;;4909409;29;21019;-73
2023/03/05 08:59:02;;;;;;;90.07;22.55;;;2.00;99.90;;;;;;4908498;29;20477;-73
2023/03/05 09:01:30;;;;;;;88.95;23.00;;;2.00;99.90;;;;;;4906101;29;20040;-72
2023/03/05 09:03:55;;;;;;;78.03;22.67;;;2.00;99.90;;;;;;4907505;29;20358;-72
2023/03/05 09:06:21;;;;;;;75.38;23.00;;;2.00;99.90;;;;;;4906645;29;20048;-72
2023/03/05 09:08:47;;;;;;;76.60;22.58;;;2.00;99.90;;;;;;4906943;29;20044;-72
2023/03/05 09:11:13;;;;;;;72.78;22.02;;;2.00;99.90;;;;;;4905565;29;20040;-72
2023/03/05 09:13:39;;;;;;;80.50;23.92;;;2.00;99.90;;;;;;4905173;29;20035;-72
2023/03/05 09:16:08;;;;;;;77.35;23.48;;;2.10;99.90;;;;;;4906802;29;20036;-70
2023/03/05 09:18:35;;;;;;;83.70;22.98;;;2.10;99.90;;;;;;4907440;29;20043;-72
2023/03/05 09:21:10;;;;;;;81.85;23.42;;;2.10;99.90;;;;;;4907183;29;20042;-72
2023/03/05 09:23:35;;;;;;;78.88;21.80;;;2.10;99.90;;;;;;4904439;29;20485;-71
2023/03/05 09:26:05;;;;;;;84.30;23.38;;;2.10;99.90;;;;;;4907899;29;20044;-72
2023/03/05 09:28:30;;;;;;;82.50;24.02;;;2.10;99.90;;;;;;4925719;29;20050;-72
2023/03/05 09:30:56;;;;;;;70.53;23.05;;;2.10;99.90;;;;;;4926433;29;20359;-72
2023/03/05 09:33:22;;;;;;;80.53;23.60;;;2.10;99.90;;;;;;4932421;29;20837;-72
2023/03/05 09:35:47;;;;;;;84.30;23.70;;;2.20;99.90;;;;;;4932699;29;20357;-72
2023/03/05 09:38:13;;;;;;;73.70;22.90;;;2.20;99.90;;;;;;4926323;29;20031;-71
2023/03/05 09:40:54;;;;;;;71.05;21.55;;;2.20;99.90;;;;;;4933587;29;20059;-71
2023/03/05 09:43:41;;;;;;;87.13;23.58;;;2.10;99.90;;;;;;4932313;29;20039;-71
2023/03/05 09:46:29;;;;;;;77.18;22.88;;;2.20;99.90;;;;;;4933495;29;20088;-69
2023/03/05 09:49:06;;;;;;;82.07;22.42;;;2.20;99.90;;;;;;4933913;29;20826;-71
2023/03/05 09:51:38;;;;;;;74.53;22.48;;;2.20;99.90;;;;;;4933549;29;20588;-71
2023/03/05 09:54:18;;;;;;;75.82;22.30;;;2.20;99.90;;;;;;4933862;29;20119;-71
2023/03/05 09:56:55;;;;;;;84.95;22.63;;;2.30;99.90;;;;;;4933733;29;20051;-71
2023/03/05 09:59:27;;;;;;;73.93;22.38;;;2.30;99.90;;;;;;4931862;29;20436;-71
2023/03/05 10:01:54;;;;;;;65.07;20.55;;;2.30;99.90;;;;;;4933640;29;20043;-71
2023/03/05 10:04:26;;;;;;;74.20;23.17;;;2.40;99.90;;;;;;4931814;29;20559;-71
2023/03/05 10:06:57;;;;;;;60.47;19.95;;;2.50;99.90;;;;;;4932317;29;20771;-71
2023/03/05 10:09:34;;;;;;;66.22;20.52;;;2.50;99.90;;;;;;4933119;29;20485;-71
2023/03/05 10:12:26;;;;;;;63.83;19.88;;;2.50;99.90;;;;;;4933557;29;20046;-71
2023/03/05 10:14:53;;;;;;;59.88;20.10;;;2.50;99.90;;;;;;4933512;29;20540;-71
2023/03/05 10:17:33;;;;;;;66.22;20.60;;;2.50;99.90;;;;;;4932753;29;20035;-71
2023/03/05 10:20:01;;;;;;;;;;;2.50;99.90;;;;;;4933850;29;20028;-70
2023/03/05 10:22:28;;;;;;;64.35;19.73;;;2.50;99.90;;;;;;4931112;29;19914;-71
2023/03/05 10:24:56;;;;;;;60.42;19.25;;;2.50;99.90;;;;;;4933063;29;20036;-71
2023/03/05 10:27:49;;;;;;;64.45;20.60;;;2.60;99.90;;;;;;4932274;29;20115;-71
2023/03/05 10:30:48;;;;;;;69.28;19.05;;;2.60;99.90;;;;;;4888231;29;20040;-70
2023/03/05 10:33:33;;;;;;;57.53;19.02;;;2.60;99.90;;;;;;4927575;29;20187;-71
2023/03/05 10:36:21;;;;;;;59.38;18.92;;;2.60;99.90;;;;;;4932381;29;20035;-72
2023/03/05 10:39:16;;;;;;;61.70;18.35;;;2.60;99.90;;;;;;4932743;29;20488;-72
2023/03/05 10:42:04;;;;;;;59.03;18.23;;;2.60;99.90;;;;;;4933185;29;20039;-72
2023/03/05 10:44:51;;;;;;;67.22;19.30;;;2.60;99.90;;;;;;4931007;29;20117;-72
2023/03/05 10:47:26;;;;;;;61.40;18.52;;;2.60;99.90;;;;;;4932303;29;20469;-72
2023/03/05 10:49:54;;;;;;;59.22;18.45;;;2.60;99.90;;;;;;4932993;29;20036;-72
2023/03/05 10:52:35;;;;;;;57.58;18.58;;;2.60;99.90;;;;;;4932063;29;20023;-72
2023/03/05 10:55:02;;;;;;;59.78;17.48;;;2.60;99.90;;;;;;4932865;29;20186;-72
2023/03/05 10:57:30;;;;;;;57.20;18.25;;;2.60;99.90;;;;;;4931851;29;20489;-72
2023/03/05 11:00:05;;;;;;;58.38;17.55;;;2.60;99.90;;;;;;4931891;29;20031;-72
2023/03/05 11:02:32;;;;;;;67.65;18.13;;;2.60;99.90;;;;;;4931795;29;20103;-72
2023/03/05 11:05:00;;;;;;;59.70;17.88;;;2.70;99.90;;;;;;4932441;29;20122;-72
2023/03/05 11:07:30;;;;;;;55.10;17.30;;;2.70;99.90;;;;;;4931499;29;20319;-72
2023/03/05 11:10:00;;;;;;;55.08;17.33;;;2.60;99.90;;;;;;4931797;29;20035;-72
2023/03/05 11:12:27;;;;;;;59.40;18.00;;;2.60;99.90;;;;;;4930697;29;20050;-72
2023/03/05 11:15:08;;;;;;;51.53;17.05;;;2.70;99.90;;;;;;4932431;29;20050;-72
2023/03/05 11:17:37;;;;;;;55.10;16.42;;;2.70;99.90;;;;;;4931093;29;20028;-72
2023/03/05 11:20:25;;;;;;;53.08;16.45;;;2.70;99.90;;;;;;4933378;29;20043;-73
2023/03/05 11:23:10;;;;;;;56.45;16.45;;;2.70;99.90;;;;;;4932291;29;20046;-71
2023/03/05 11:26:00;;;;;;;53.70;16.65;;;2.70;99.90;;;;;;4931583;29;20619;-72
2023/03/05 11:29:00;;;;;;;52.05;16.35;;;2.70;99.90;;;;;;4931245;29;20139;-72
2023/03/05 11:31:29;;;;;;;52.42;17.77;;;2.70;99.90;;;;;;4913635;29;20040;-71
2023/03/05 11:33:57;;;;;;;56.97;16.88;;;2.70;99.90;;;;;;4927643;29;20556;-72
2023/03/05 11:36:29;;;;;;;44.97;14.98;;;2.70;99.90;;;;;;4930373;29;20032;-71
2023/03/05 11:39:05;;;;;;;59.63;17.17;;;2.70;99.90;;;;;;4934460;29;20027;-72
2023/03/05 11:41:43;;;;;;;50.10;17.00;;;2.70;99.90;;;;;;4912751;29;20032;-72
2023/03/05 11:44:16;;;;;;;49.95;16.27;;;2.60;99.90;;;;;;4929319;29;20048;-71
2023/03/05 11:47:11;;;;;;;53.15;17.23;;;2.60;99.90;;;;;;4930154;29;20035;-72
2023/03/05 11:49:43;;;;;;;52.53;16.42;;;2.60;99.90;;;;;;4919188;29;20610;-71
2023/03/05 11:52:19;;;;;;;50.38;15.43;;;2.70;99.90;;;;;;4913734;29;20879;-71
2023/03/05 11:54:57;;;;;;;53.15;17.98;;;2.60;99.90;;;;;;4934360;29;20101;-71
2023/03/05 11:57:24;;;;;;;58.45;16.27;;;2.60;99.90;;;;;;4943365;29;20043;-71
2023/03/05 11:59:54;;;;;;;53.70;17.02;;;2.60;99.90;;;;;;4931745;29;20047;-71
2023/03/05 12:02:23;;;;;;;50.42;16.05;;;2.60;99.90;;;;;;4930214;29;20046;-70
2023/03/05 12:04:50;;;;;;;54.80;16.35;;;2.60;99.90;;;;;;4928573;29;20048;-70
2023/03/05 12:07:35;;;;;;;56.97;18.60;;;2.60;99.90;;;;;;4921724;29;20179;-69
2023/03/05 12:10:01;;;;;;;59.17;16.90;;;2.60;99.90;;;;;;4931569;29;20571;-71
2023/03/05 12:12:53;;;;;;;59.08;18.05;;;2.60;99.90;;;;;;4929747;29;20063;-72
2023/03/05 12:15:31;;;;;;;50.53;17.23;;;2.60;99.90;;;;;;4900048;29;20040;-72
2023/03/05 12:18:15;;;;;;;50.33;16.77;;;2.70;99.90;;;;;;4931021;29;20115;-71
2023/03/05 12:20:45;;;;;;;48.55;16.55;;;2.60;99.90;;;;;;4926473;29;20047;-72
2023/03/05 12:23:16;;;;;;;44.85;16.73;;;2.70;99.90;;;;;;4926502;29;20114;-71
2023/03/05 12:25:51;;;;;;;55.80;16.92;;;2.80;99.90;;;;;;4931234;29;20110;-72
2023/03/05 12:28:44;;;;;;;60.97;16.98;;;2.80;99.90;;;;;;4924948;29;20047;-70
2023/03/05 12:31:36;;;;;;;54.75;16.55;;;2.80;99.90;;;;;;4905105;29;20044;-71
2023/03/05 12:34:46;;;;;;;51.88;16.83;;;2.80;99.90;;;;;;4927894;29;20047;-72
2023/03/05 12:37:33;;;;;;;44.28;15.38;;;2.90;99.90;;;;;;4910593;29;20032;-72
2023/03/05 12:40:06;;;;;;;51.72;16.95;;;3.00;99.90;;;;;;4920504;29;20915;-72
2023/03/05 12:42:31;;;;;;;51.38;16.58;;;3.10;99.90;;;;;;4928726;29;20032;-72
2023/03/05 12:45:09;;;;;;;49.25;16.77;;;3.20;99.90;;;;;;4928017;29;20487;-72
2023/03/05 12:47:44;;;;;;;48.78;16.40;;;3.30;99.90;;;;;;4920198;29;20032;-72
2023/03/05 12:50:28;;;;;;;51.58;16.63;;;3.30;99.90;;;;;;4923578;29;20742;-71